createdAt,value
2023-04-04T00:01:03.542Z,62.78
2023-04-04T00:03:16.253Z,62.81
2023-04-04T00:05:28.885Z,62.72
2023-04-04T00:07:41.831Z,62.78
2023-04-04T00:09:54.329Z,62.78
2023-04-04T00:12:06.997Z,62.93
2023-04-04T00:14:20.000Z,63.14
2023-04-04T00:16:33.947Z,63.06
2023-04-04T00:18:46.650Z,63.17
2023-04-04T00:20:59.536Z,63.32
2023-04-04T00:23:12.109Z,63.50
2023-04-04T00:25:24.973Z,63.52
2023-04-04T00:27:37.619Z,63.57
2023-04-04T00:29:50.187Z,63.63
2023-04-04T00:32:03.753Z,63.87
2023-04-04T00:34:16.318Z,63.72
2023-04-04T00:36:28.869Z,63.92
2023-04-04T00:38:41.407Z,63.82
2023-04-04T00:40:54.039Z,63.84
2023-04-04T00:43:07.452Z,63.88
2023-04-04T00:45:20.290Z,63.72
2023-04-04T00:47:33.635Z,63.86
2023-04-04T00:49:46.568Z,63.96
2023-04-04T00:52:17.156Z,63.79
2023-04-04T00:54:30.530Z,64.02
2023-04-04T00:56:43.103Z,64.08
2023-04-04T00:58:57.255Z,63.99
2023-04-04T01:01:11.422Z,64.08
2023-04-04T01:03:24.499Z,64.24
2023-04-04T01:05:37.144Z,64.33
2023-04-04T01:07:49.776Z,64.38
2023-04-04T01:10:04.118Z,64.27
2023-04-04T01:12:17.003Z,64.59
2023-04-04T01:14:29.553Z,64.62
2023-04-04T01:16:42.471Z,64.44
2023-04-04T01:18:56.616Z,64.31
2023-04-04T01:21:14.201Z,64.49
2023-04-04T01:23:36.215Z,64.59
2023-04-04T01:25:49.007Z,64.64
2023-04-04T01:28:01.675Z,64.61
2023-04-04T01:30:16.107Z,64.77
2023-04-04T01:32:37.618Z,64.85
2023-04-04T01:35:05.475Z,64.80
2023-04-04T01:37:39.172Z,64.91
2023-04-04T01:40:00.079Z,64.90
2023-04-04T01:42:14.198Z,64.79
2023-04-04T01:44:26.799Z,64.96
2023-04-04T01:46:39.381Z,64.94
2023-04-04T01:48:51.994Z,64.96
2023-04-04T01:51:04.840Z,65.19
2023-04-04T01:53:17.435Z,65.29
2023-04-04T01:55:29.962Z,65.45
2023-04-04T01:57:42.519Z,65.60
2023-04-04T01:59:55.106Z,65.75
2023-04-04T02:02:07.660Z,65.86
2023-04-04T02:04:20.305Z,65.98
2023-04-04T02:06:32.909Z,66.07
2023-04-04T02:08:45.463Z,65.88
2023-04-04T02:10:58.936Z,65.97
2023-04-04T02:13:12.092Z,66.05
2023-04-04T02:15:25.180Z,66.36
2023-04-04T02:17:37.911Z,66.16
2023-04-04T02:19:50.697Z,66.35
2023-04-04T02:22:03.273Z,66.43
2023-04-04T02:24:16.057Z,66.46
2023-04-04T02:26:28.547Z,66.48
2023-04-04T02:28:41.086Z,66.78
2023-04-04T02:30:53.674Z,66.50
2023-04-04T02:33:06.305Z,66.45
2023-04-04T02:35:18.999Z,66.46
2023-04-04T02:37:31.817Z,66.59
2023-04-04T02:39:44.367Z,66.73
2023-04-04T02:41:57.055Z,66.62
2023-04-04T02:44:10.139Z,66.67
2023-04-04T02:46:22.939Z,66.64
2023-04-04T02:48:36.301Z,67.13
2023-04-04T02:50:48.846Z,67.06
2023-04-04T02:53:02.489Z,67.35
2023-04-04T02:55:15.120Z,67.15
2023-04-04T02:57:27.728Z,67.05
2023-04-04T02:59:40.324Z,67.30
2023-04-04T03:01:52.942Z,67.12
2023-04-04T03:04:05.789Z,67.47
2023-04-04T03:06:18.471Z,67.49
2023-04-04T03:08:31.293Z,67.54
2023-04-04T03:10:44.864Z,67.55
2023-04-04T03:12:57.821Z,67.75
2023-04-04T03:15:10.845Z,67.69
2023-04-04T03:17:23.487Z,67.84
2023-04-04T03:19:36.305Z,68.10
2023-04-04T03:21:48.782Z,67.96
2023-04-04T03:24:01.347Z,68.12
2023-04-04T03:26:13.896Z,68.08
2023-04-04T03:28:26.444Z,68.31
2023-04-04T03:30:39.265Z,68.49
2023-04-04T03:32:52.074Z,68.56
2023-04-04T03:35:06.958Z,68.63
2023-04-04T03:37:19.824Z,69.23
2023-04-04T03:39:32.789Z,69.28
2023-04-04T03:41:45.661Z,69.31
2023-04-04T03:43:58.173Z,69.50
2023-04-04T03:46:10.801Z,69.64
2023-04-04T03:48:23.418Z,70.16
2023-04-04T03:50:36.916Z,70.24
2023-04-04T03:52:49.470Z,70.36
2023-04-04T03:55:02.272Z,70.63
2023-04-04T03:57:14.870Z,70.99
2023-04-04T03:59:27.674Z,70.86
2023-04-04T04:01:40.412Z,70.98
2023-04-04T04:03:53.113Z,71.17
2023-04-04T04:06:06.230Z,71.25
2023-04-04T04:08:18.807Z,71.16
2023-04-04T04:10:32.141Z,70.77
2023-04-04T04:12:44.672Z,71.04
2023-04-04T04:14:57.271Z,70.91
2023-04-04T04:17:09.832Z,71.21
2023-04-04T04:19:22.530Z,71.02
2023-04-04T04:21:35.131Z,71.26
2023-04-04T04:23:47.703Z,71.25
2023-04-04T04:26:00.948Z,71.63
2023-04-04T04:28:13.932Z,71.49
2023-04-04T04:30:26.478Z,71.36
2023-04-04T04:32:39.110Z,71.41
2023-04-04T04:34:51.873Z,71.14
2023-04-04T04:37:04.376Z,71.12
2023-04-04T04:39:16.975Z,71.10
2023-04-04T04:41:29.838Z,71.15
2023-04-04T04:43:42.455Z,71.10
2023-04-04T04:45:55.098Z,71.13
2023-04-04T04:48:07.909Z,70.97
2023-04-04T04:50:20.739Z,70.99
2023-04-04T04:52:36.469Z,70.85
2023-04-04T04:54:49.921Z,71.02
2023-04-04T04:57:02.748Z,71.17
2023-04-04T04:59:15.717Z,71.01
2023-04-04T05:01:28.429Z,70.97
2023-04-04T05:03:41.124Z,70.72
2023-04-04T05:05:53.669Z,70.62
2023-04-04T05:08:06.283Z,70.76
2023-04-04T05:10:18.828Z,70.78
2023-04-04T05:12:31.449Z,70.64
2023-04-04T05:14:44.604Z,70.75
2023-04-04T05:16:57.335Z,70.63
2023-04-04T05:19:09.949Z,70.41
2023-04-04T05:21:23.547Z,70.28
2023-04-04T05:23:36.187Z,69.94
2023-04-04T05:25:50.905Z,69.99
2023-04-04T05:28:03.983Z,69.85
2023-04-04T05:30:16.976Z,69.85
2023-04-04T05:32:29.674Z,69.98
2023-04-04T05:34:42.302Z,69.85
2023-04-04T05:36:54.866Z,69.74
2023-04-04T05:39:07.571Z,69.64
2023-04-04T05:41:20.129Z,69.32
2023-04-04T05:43:32.647Z,68.91
2023-04-04T05:45:45.395Z,69.02
2023-04-04T05:47:58.114Z,68.96
2023-04-04T05:50:11.085Z,68.93
2023-04-04T05:52:23.629Z,68.67
2023-04-04T05:54:36.200Z,68.66
2023-04-04T05:56:48.856Z,68.61
2023-04-04T05:59:02.210Z,68.54
2023-04-04T06:01:14.932Z,68.53
2023-04-04T06:03:28.877Z,68.46
2023-04-04T06:05:43.400Z,68.35
2023-04-04T06:07:55.941Z,68.13
2023-04-04T06:10:09.268Z,67.80
2023-04-04T06:12:21.851Z,67.65
2023-04-04T06:14:35.948Z,67.61
2023-04-04T06:16:48.591Z,67.69
2023-04-04T06:19:01.334Z,67.71
2023-04-04T06:21:14.139Z,67.31
2023-04-04T06:23:26.649Z,67.35
2023-04-04T06:25:39.451Z,67.17
2023-04-04T06:27:52.262Z,66.77
2023-04-04T06:30:06.062Z,66.52
2023-04-04T06:32:20.403Z,66.16
2023-04-04T06:34:32.914Z,66.13
2023-04-04T06:36:45.486Z,65.71
2023-04-04T06:38:58.018Z,65.47
2023-04-04T06:41:10.937Z,65.41
2023-04-04T06:43:23.501Z,65.04
2023-04-04T06:45:36.227Z,64.97
2023-04-04T06:47:49.930Z,64.34
2023-04-04T06:50:02.901Z,64.42
2023-04-04T06:52:15.448Z,64.00
2023-04-04T06:54:28.020Z,63.71
2023-04-04T06:56:40.545Z,63.54
2023-04-04T06:58:53.170Z,63.44
2023-04-04T07:01:05.754Z,63.46
2023-04-04T07:03:18.377Z,62.91
2023-04-04T07:05:32.289Z,62.90
2023-04-04T07:07:46.466Z,62.42
2023-04-04T07:09:59.037Z,62.17
2023-04-04T07:12:11.564Z,62.03
2023-04-04T07:14:25.477Z,61.89
2023-04-04T07:16:38.461Z,61.58
2023-04-04T07:18:51.028Z,60.93
2023-04-04T07:21:03.734Z,60.53
2023-04-04T07:23:16.739Z,59.50
2023-04-04T07:25:29.238Z,59.02
2023-04-04T07:27:41.967Z,58.73
2023-04-04T07:29:54.487Z,58.62
2023-04-04T07:32:07.298Z,58.69
2023-04-04T07:34:20.587Z,57.70
2023-04-04T07:36:33.275Z,57.79
2023-04-04T07:38:47.025Z,57.68
2023-04-04T07:41:02.363Z,56.72
2023-04-04T07:43:16.606Z,56.13
2023-04-04T07:45:29.212Z,55.87
2023-04-04T07:47:45.310Z,55.13
2023-04-04T07:49:57.906Z,54.15
2023-04-04T07:52:10.628Z,54.21
2023-04-04T07:54:24.551Z,53.84
2023-04-04T07:56:37.067Z,53.95
2023-04-04T07:58:49.610Z,53.58
2023-04-04T08:01:03.488Z,53.74
2023-04-04T08:03:17.796Z,53.59
2023-04-04T08:05:30.665Z,52.78
2023-04-04T08:07:43.331Z,52.30
2023-04-04T08:09:56.125Z,51.84
2023-04-04T08:12:08.706Z,51.67
2023-04-04T08:14:21.284Z,51.94
2023-04-04T08:16:33.840Z,51.35
2023-04-04T08:18:46.456Z,51.52
2023-04-04T08:20:59.002Z,51.74
2023-04-04T08:23:13.071Z,51.47
2023-04-04T08:25:25.704Z,51.14
2023-04-04T08:27:43.964Z,50.76
2023-04-04T08:29:57.093Z,51.13
2023-04-04T08:32:09.719Z,50.88
2023-04-04T08:34:23.594Z,50.93
2023-04-04T08:36:36.160Z,50.68
2023-04-04T08:38:48.724Z,50.70
2023-04-04T08:41:01.514Z,50.42
2023-04-04T08:43:15.656Z,49.39
2023-04-04T08:45:31.464Z,49.73
2023-04-04T08:47:46.046Z,49.34
2023-04-04T08:50:01.724Z,49.48
2023-04-04T08:52:17.785Z,48.80
2023-04-04T08:54:31.211Z,48.74
2023-04-04T08:56:43.743Z,48.69
2023-04-04T08:58:56.522Z,48.72
2023-04-04T09:01:10.349Z,48.45
2023-04-04T09:03:27.692Z,48.21
2023-04-04T09:05:41.355Z,48.27
2023-04-04T09:07:54.859Z,48.64
2023-04-04T09:10:11.901Z,48.64
2023-04-04T09:12:25.834Z,48.54
2023-04-04T09:14:40.387Z,48.85
2023-04-04T09:16:53.580Z,48.56
2023-04-04T09:19:06.143Z,48.25
2023-04-04T09:21:19.337Z,48.32
2023-04-04T09:23:31.867Z,48.27
2023-04-04T09:28:05.824Z,48.01
2023-04-04T09:30:18.493Z,47.91
2023-04-04T09:32:31.157Z,47.28
2023-04-04T09:34:45.190Z,46.80
2023-04-04T09:36:58.757Z,47.07
2023-04-04T09:39:12.300Z,46.93
2023-04-04T09:41:26.229Z,47.18
2023-04-04T09:43:39.877Z,47.79
2023-04-04T09:45:54.830Z,47.91
2023-04-04T09:48:09.353Z,48.07
2023-04-04T09:50:23.816Z,47.59
2023-04-04T09:52:36.412Z,47.57
2023-04-04T09:54:59.421Z,47.50
2023-04-04T09:57:12.436Z,47.26
2023-04-04T09:59:25.103Z,47.26
2023-04-04T10:01:37.890Z,47.48
2023-04-04T10:03:54.451Z,47.57
2023-04-04T10:06:08.307Z,47.36
2023-04-04T10:08:24.218Z,46.88
2023-04-04T10:10:46.523Z,46.69
2023-04-04T10:12:59.109Z,46.75
2023-04-04T10:15:11.699Z,46.45
2023-04-04T10:17:30.342Z,46.25
2023-04-04T10:19:43.448Z,45.87
2023-04-04T10:21:57.002Z,46.03
2023-04-04T10:24:10.120Z,45.93
2023-04-04T10:26:23.085Z,45.84
2023-04-04T10:28:35.956Z,46.20
2023-04-04T10:31:29.505Z,45.90
2023-04-04T10:33:50.225Z,45.91
2023-04-04T10:36:04.737Z,45.41
2023-04-04T10:38:21.810Z,44.48
2023-04-04T10:40:38.749Z,44.71
2023-04-04T10:42:52.133Z,44.76
2023-04-04T10:45:19.977Z,44.54
2023-04-04T10:47:34.708Z,44.12
2023-04-04T10:49:49.122Z,44.28
2023-04-04T10:52:02.638Z,44.04
2023-04-04T10:54:15.554Z,43.48
2023-04-04T10:56:29.795Z,43.48
2023-04-04T10:58:42.618Z,44.00
2023-04-04T11:00:56.318Z,43.83
2023-04-04T11:03:08.890Z,44.35
2023-04-04T11:05:40.857Z,44.32
2023-04-04T11:08:08.715Z,44.55
2023-04-04T11:10:29.331Z,44.36
2023-04-04T11:12:47.488Z,44.50
2023-04-04T11:15:04.042Z,44.32
2023-04-04T11:17:16.635Z,44.25
2023-04-04T11:19:30.254Z,44.63
2023-04-04T11:21:46.181Z,44.52
2023-04-04T11:23:58.677Z,44.51
2023-04-04T11:26:12.068Z,44.63
2023-04-04T11:28:42.722Z,44.80
2023-04-04T11:31:26.373Z,44.89
2023-04-04T11:34:00.282Z,45.03
2023-04-04T11:36:36.032Z,44.98
2023-04-04T11:38:50.226Z,45.16
2023-04-04T11:41:03.437Z,45.21
2023-04-04T11:43:17.009Z,45.16
2023-04-04T11:45:31.033Z,45.00
2023-04-04T11:47:47.514Z,44.86
2023-04-04T11:50:02.212Z,44.91
2023-04-04T11:52:17.630Z,45.25
2023-04-04T11:54:32.053Z,45.35
2023-04-04T11:56:45.517Z,45.69
2023-04-04T11:59:08.638Z,45.55
2023-04-04T12:01:23.909Z,46.01
2023-04-04T12:03:36.550Z,46.04
2023-04-04T12:05:49.387Z,46.28
2023-04-04T12:08:03.207Z,46.48
2023-04-04T12:10:15.879Z,46.69
2023-04-04T12:12:28.696Z,46.67
2023-04-04T12:14:41.279Z,46.84
2023-04-04T12:16:55.857Z,46.62
2023-04-04T12:19:08.404Z,46.23
2023-04-04T12:21:20.957Z,46.61
2023-04-04T12:23:36.902Z,46.47
2023-04-04T12:25:54.613Z,46.65
2023-04-04T12:28:08.009Z,46.96
2023-04-04T12:30:21.128Z,46.82
2023-04-04T12:32:33.777Z,47.17
2023-04-04T12:34:50.016Z,47.45
2023-04-04T12:37:04.176Z,47.87
2023-04-04T12:39:17.295Z,47.74
2023-04-04T12:41:30.708Z,47.75
2023-04-04T12:43:46.493Z,47.89
2023-04-04T12:45:59.075Z,47.86
2023-04-04T12:48:15.922Z,47.65
2023-04-04T12:50:28.933Z,47.54
2023-04-04T12:52:42.554Z,46.96
2023-04-04T12:55:08.009Z,46.50
2023-04-04T12:57:23.941Z,45.87
2023-04-04T12:59:36.821Z,45.27
2023-04-04T13:01:49.676Z,44.79
2023-04-04T13:04:04.536Z,45.11
2023-04-04T13:06:17.296Z,44.37
2023-04-04T13:08:29.927Z,44.16
2023-04-04T13:11:06.148Z,44.74
2023-04-04T13:13:40.254Z,44.33
2023-04-04T13:15:54.402Z,44.79
2023-04-04T13:18:15.026Z,45.00
2023-04-04T13:20:27.536Z,45.43
2023-04-04T13:22:41.778Z,45.47
2023-04-04T13:24:54.291Z,45.06
2023-04-04T13:27:06.845Z,45.45
2023-04-04T13:29:19.499Z,45.59
2023-04-04T13:31:32.390Z,45.50
2023-04-04T13:33:44.985Z,45.51
2023-04-04T13:35:57.863Z,45.43
2023-04-04T13:38:11.336Z,45.00
2023-04-04T13:40:23.869Z,45.36
2023-04-04T13:42:36.616Z,45.11
2023-04-04T13:44:49.199Z,44.96
2023-04-04T13:47:02.566Z,44.49
2023-04-04T13:49:15.263Z,44.29
2023-04-04T13:51:27.998Z,43.35
2023-04-04T13:53:41.511Z,42.64
2023-04-04T13:58:09.550Z,42.67
2023-04-04T14:00:22.624Z,42.55
2023-04-04T14:02:35.213Z,42.76
2023-04-04T14:04:48.022Z,42.79
2023-04-04T14:07:00.561Z,42.06
2023-04-04T14:09:13.119Z,42.53
2023-04-04T14:11:30.861Z,42.44
2023-04-04T14:13:43.418Z,42.76
2023-04-04T14:15:56.010Z,42.73
2023-04-04T14:18:08.596Z,43.31
2023-04-04T14:20:21.268Z,43.50
2023-04-04T14:22:34.112Z,43.71
2023-04-04T14:24:46.763Z,43.66
2023-04-04T14:26:59.263Z,44.01
2023-04-04T14:29:11.814Z,44.20
2023-04-04T14:31:24.528Z,44.59
2023-04-04T14:33:37.179Z,44.63
2023-04-04T14:35:51.015Z,44.98
2023-04-04T14:38:03.526Z,44.89
2023-04-04T14:40:16.547Z,45.07
2023-04-04T14:42:29.519Z,45.08
2023-04-04T14:44:42.272Z,45.44
2023-04-04T14:46:54.895Z,45.22
2023-04-04T14:49:08.293Z,45.27
2023-04-04T14:51:20.971Z,44.70
2023-04-04T14:53:33.560Z,44.61
2023-04-04T14:55:46.187Z,44.58
2023-04-04T14:58:02.448Z,44.47
2023-04-04T15:00:20.386Z,44.28
2023-04-04T15:02:32.962Z,44.31
2023-04-04T15:04:46.081Z,44.50
2023-04-04T15:07:02.918Z,44.09
2023-04-04T15:09:16.322Z,44.28
2023-04-04T15:11:29.496Z,44.01
2023-04-04T15:13:43.922Z,43.68
2023-04-04T15:15:56.560Z,43.42
2023-04-04T15:18:09.221Z,43.48
2023-04-04T15:20:21.861Z,43.37
2023-04-04T15:22:34.454Z,43.64
2023-04-04T15:24:47.067Z,43.70
2023-04-04T15:26:59.597Z,43.64
2023-04-04T15:29:12.273Z,43.73
2023-04-04T15:31:26.631Z,43.97
2023-04-04T15:33:39.372Z,43.73
2023-04-04T15:35:52.019Z,43.77
2023-04-04T15:38:04.658Z,43.89
2023-04-04T15:40:18.280Z,44.05
2023-04-04T15:42:31.800Z,44.17
2023-04-04T15:44:44.626Z,44.18
2023-04-04T15:46:57.286Z,44.21
2023-04-04T15:49:09.849Z,44.05
2023-04-04T15:51:23.022Z,43.74
2023-04-04T15:53:36.309Z,43.67
2023-04-04T15:55:49.031Z,43.25
2023-04-04T15:58:01.569Z,43.05
2023-04-04T16:00:14.975Z,42.79
2023-04-04T16:02:27.704Z,42.61
2023-04-04T16:04:40.390Z,42.50
2023-04-04T16:06:52.972Z,42.58
2023-04-04T16:09:06.337Z,42.69
2023-04-04T16:11:19.172Z,42.69
2023-04-04T16:13:31.891Z,43.10
2023-04-04T16:15:45.234Z,43.06
2023-04-04T16:17:59.618Z,42.96
2023-04-04T16:20:12.925Z,43.27
2023-04-04T16:22:25.510Z,43.30
2023-04-04T16:24:38.079Z,43.38
2023-04-04T16:26:50.601Z,43.16
2023-04-04T16:29:03.272Z,42.81
2023-04-04T16:31:16.154Z,42.68
2023-04-04T16:33:28.688Z,42.99
2023-04-04T16:35:41.192Z,43.30
2023-04-04T16:37:54.381Z,43.42
2023-04-04T16:40:07.743Z,43.40
2023-04-04T16:42:20.408Z,43.39
2023-04-04T16:44:33.002Z,43.55
2023-04-04T16:46:47.151Z,43.62
2023-04-04T16:48:59.730Z,43.61
2023-04-04T16:51:12.357Z,43.55
2023-04-04T16:53:24.979Z,43.73
2023-04-04T16:55:37.683Z,43.84
2023-04-04T16:57:50.219Z,43.94
2023-04-04T17:00:05.750Z,43.84
2023-04-04T17:02:18.342Z,44.11
2023-04-04T17:04:31.290Z,44.27
2023-04-04T17:06:43.982Z,44.40
2023-04-04T17:08:56.960Z,44.58
2023-04-04T17:11:09.572Z,44.78
2023-04-04T17:13:24.616Z,44.98
2023-04-04T17:15:37.192Z,45.20
2023-04-04T17:17:49.818Z,45.54
2023-04-04T17:20:02.958Z,45.80
2023-04-04T17:22:16.168Z,45.93
2023-04-04T17:24:28.781Z,46.31
2023-04-04T17:26:41.636Z,46.39
2023-04-04T17:28:54.209Z,46.63
2023-04-04T17:31:07.579Z,46.73
2023-04-04T17:33:21.126Z,47.30
2023-04-04T17:35:33.782Z,47.41
2023-04-04T17:37:46.352Z,47.42
2023-04-04T17:39:59.745Z,47.17
2023-04-04T17:42:12.390Z,47.21
2023-04-04T17:44:24.888Z,47.21
2023-04-04T17:46:37.895Z,47.68
2023-04-04T17:48:50.464Z,47.76
2023-04-04T17:51:06.968Z,48.05
2023-04-04T17:53:21.132Z,48.33
2023-04-04T17:55:34.252Z,48.47
2023-04-04T17:57:46.868Z,48.42
2023-04-04T17:59:59.434Z,48.91
2023-04-04T18:02:12.143Z,49.40
2023-04-04T18:04:25.488Z,49.13
2023-04-04T18:06:40.302Z,49.49
2023-04-04T18:08:55.197Z,49.46
2023-04-04T18:11:10.548Z,50.10
2023-04-04T18:13:23.113Z,50.19
2023-04-04T18:15:35.936Z,49.99
2023-04-04T18:17:48.600Z,50.56
2023-04-04T18:20:03.913Z,50.97
2023-04-04T18:22:16.465Z,50.74
2023-04-04T18:24:29.418Z,51.00
2023-04-04T18:26:42.368Z,51.03
2023-04-04T18:28:54.958Z,50.88
2023-04-04T18:31:08.252Z,50.86
2023-04-04T18:33:22.133Z,51.23
2023-04-04T18:35:34.838Z,50.84
2023-04-04T18:37:47.503Z,51.41
2023-04-04T18:40:00.169Z,51.78
2023-04-04T18:42:12.934Z,51.54
2023-04-04T18:44:25.970Z,51.87
2023-04-04T18:46:39.209Z,52.82
2023-04-04T18:48:51.963Z,53.32
2023-04-04T18:51:04.650Z,53.79
2023-04-04T18:53:17.405Z,54.01
2023-04-04T18:55:30.032Z,53.71
2023-04-04T18:57:44.238Z,53.40
2023-04-04T18:59:56.794Z,53.31
2023-04-04T19:02:09.536Z,53.32
2023-04-04T19:04:23.187Z,53.46
2023-04-04T19:06:35.766Z,53.42
2023-04-04T19:08:48.640Z,53.84
2023-04-04T19:11:01.160Z,53.87
2023-04-04T19:13:15.161Z,54.23
2023-04-04T19:15:27.979Z,54.59
2023-04-04T19:17:41.169Z,54.93
2023-04-04T19:19:53.829Z,54.88
2023-04-04T19:22:06.425Z,55.28
2023-04-04T19:24:19.041Z,55.47
2023-04-04T19:26:32.030Z,55.87
2023-04-04T19:28:46.208Z,56.08
2023-04-04T19:31:00.265Z,56.35
2023-04-04T19:33:18.430Z,56.78
2023-04-04T19:35:54.249Z,56.97
2023-04-04T19:38:07.880Z,56.78
2023-04-04T19:41:06.664Z,57.22
2023-04-04T19:43:21.562Z,57.31
2023-04-04T19:45:51.372Z,57.50
2023-04-04T19:48:28.301Z,57.49
2023-04-04T19:50:40.951Z,57.83
2023-04-04T19:52:53.520Z,58.02
2023-04-04T19:55:08.394Z,58.05
2023-04-04T19:57:22.104Z,57.95
2023-04-04T19:59:54.537Z,58.00
2023-04-04T20:02:14.677Z,57.91
2023-04-04T20:04:27.924Z,58.03
2023-04-04T20:06:42.436Z,58.08
2023-04-04T20:09:00.743Z,58.15
2023-04-04T20:11:13.432Z,58.07
2023-04-04T20:13:26.288Z,58.28
2023-04-04T20:15:44.947Z,58.38
2023-04-04T20:17:57.771Z,58.40
2023-04-04T20:20:11.546Z,58.34
2023-04-04T20:22:25.515Z,58.30
2023-04-04T20:24:39.357Z,58.32
2023-04-04T20:26:54.640Z,58.33
2023-04-04T20:29:15.629Z,58.35
2023-04-04T20:31:28.782Z,58.15
2023-04-04T20:33:41.476Z,58.38
2023-04-04T20:35:54.916Z,58.60
2023-04-04T20:38:10.794Z,58.52
2023-04-04T20:40:39.288Z,58.76
2023-04-04T20:42:52.084Z,58.84
2023-04-04T20:45:11.006Z,58.60
2023-04-04T20:47:41.221Z,58.53
2023-04-04T20:49:53.867Z,58.61
2023-04-04T20:52:06.787Z,58.76
2023-04-04T20:54:19.461Z,58.81
2023-04-04T20:56:41.522Z,58.85
2023-04-04T20:58:54.100Z,58.68
2023-04-04T21:01:13.184Z,58.82
2023-04-04T21:03:25.978Z,58.86
2023-04-04T21:05:39.862Z,59.28
2023-04-04T21:07:52.569Z,59.45
2023-04-04T21:10:21.895Z,59.42
2023-04-04T21:12:34.450Z,59.31
2023-04-04T21:14:47.035Z,59.48
2023-04-04T21:16:59.665Z,59.54
2023-04-04T21:19:12.467Z,59.42
2023-04-04T21:21:26.232Z,59.50
2023-04-04T21:23:38.774Z,59.74
2023-04-04T21:25:54.660Z,59.73
2023-04-04T21:28:11.394Z,59.79
2023-04-04T21:30:43.127Z,59.81
2023-04-04T21:32:55.918Z,60.00
2023-04-04T21:35:09.019Z,60.32
2023-04-04T21:37:21.724Z,60.44
2023-04-04T21:39:36.450Z,60.60
2023-04-04T21:41:56.547Z,61.05
2023-04-04T21:44:10.247Z,61.05
2023-04-04T21:46:25.052Z,61.11
2023-04-04T21:48:37.629Z,61.22
2023-04-04T21:50:50.841Z,61.24
2023-04-04T21:53:03.398Z,61.20
2023-04-04T21:55:16.016Z,61.40
2023-04-04T21:57:28.569Z,61.56
2023-04-04T21:59:41.092Z,61.41
2023-04-04T22:01:53.618Z,61.64
2023-04-04T22:04:06.315Z,61.56
2023-04-04T22:06:26.253Z,61.56
2023-04-04T22:08:39.047Z,61.60
2023-04-04T22:10:52.311Z,62.08
2023-04-04T22:13:04.827Z,61.99
2023-04-04T22:15:17.651Z,61.93
2023-04-04T22:17:30.208Z,62.59
2023-04-04T22:19:42.915Z,62.50
2023-04-04T22:21:58.558Z,62.82
2023-04-04T22:24:13.689Z,62.80
2023-04-04T22:26:32.453Z,62.94
2023-04-04T22:28:45.786Z,62.85
2023-04-04T22:30:58.415Z,63.20
2023-04-04T22:33:11.956Z,63.02
2023-04-04T22:35:24.847Z,63.28
2023-04-04T22:37:38.604Z,63.21
2023-04-04T22:39:51.130Z,63.23
2023-04-04T22:42:03.871Z,63.24
2023-04-04T22:44:17.838Z,63.49
2023-04-04T22:46:31.320Z,63.28
2023-04-04T22:48:46.371Z,63.45
2023-04-04T22:51:02.697Z,63.74
2023-04-04T22:53:15.954Z,64.07
2023-04-04T22:55:29.171Z,64.00
2023-04-04T22:57:41.856Z,64.20
2023-04-04T22:59:54.361Z,64.12
2023-04-04T23:02:06.865Z,64.34
2023-04-04T23:04:19.527Z,64.87
2023-04-04T23:06:32.544Z,64.50
2023-04-04T23:08:47.531Z,64.85
2023-04-04T23:11:00.172Z,65.19
2023-04-04T23:13:12.877Z,65.59
2023-04-04T23:15:27.341Z,65.62
2023-04-04T23:17:40.521Z,65.63
2023-04-04T23:19:53.960Z,65.88
2023-04-04T23:22:06.517Z,65.52
2023-04-04T23:24:19.158Z,65.80
2023-04-04T23:26:32.865Z,65.81
2023-04-04T23:28:45.477Z,66.11
2023-04-04T23:30:58.140Z,66.23
2023-04-04T23:33:10.909Z,66.37
2023-04-04T23:35:23.570Z,66.38
2023-04-04T23:37:36.595Z,66.55
2023-04-04T23:39:49.489Z,66.44
2023-04-04T23:42:02.665Z,66.70
2023-04-04T23:44:17.470Z,66.48
2023-04-04T23:46:32.488Z,67.00
2023-04-04T23:48:45.807Z,66.93
2023-04-04T23:51:01.658Z,67.35
2023-04-04T23:53:14.289Z,67.15
2023-04-04T23:55:27.313Z,67.26
2023-04-04T23:57:40.071Z,67.58
2023-04-04T23:59:52.615Z,67.28
